sensor_id;sensor_type;location;lat;lon;timestamp;temperature;humidity
488;DHT22;16586;48.976;9.584;2022-10-16T00:01:30;17.30;72.10
488;DHT22;16586;48.976;9.584;2022-10-16T00:03:58;17.40;72.40
488;DHT22;16586;48.976;9.584;2022-10-16T00:06:26;17.40;72.30
488;DHT22;16586;48.976;9.584;2022-10-16T00:08:53;17.40;72.30
488;DHT22;16586;48.976;9.584;2022-10-16T00:11:23;17.30;72.40
488;DHT22;16586;48.976;9.584;2022-10-16T00:13:52;17.40;72.30
488;DHT22;16586;48.976;9.584;2022-10-16T00:16:20;17.40;72.20
488;DHT22;16586;48.976;9.584;2022-10-16T00:18:47;17.40;72.00
488;DHT22;16586;48.976;9.584;2022-10-16T00:21:16;17.40;72.50
488;DHT22;16586;48.976;9.584;2022-10-16T00:23:43;17.40;72.50
488;DHT22;16586;48.976;9.584;2022-10-16T00:26:14;17.30;72.60
488;DHT22;16586;48.976;9.584;2022-10-16T00:28:44;17.40;72.90
488;DHT22;16586;48.976;9.584;2022-10-16T00:31:12;17.40;73.00
488;DHT22;16586;48.976;9.584;2022-10-16T00:33:40;17.40;72.80
488;DHT22;16586;48.976;9.584;2022-10-16T00:36:09;17.40;73.20
488;DHT22;16586;48.976;9.584;2022-10-16T00:38:36;17.50;73.00
488;DHT22;16586;48.976;9.584;2022-10-16T00:41:04;17.50;72.80
488;DHT22;16586;48.976;9.584;2022-10-16T00:43:37;17.50;72.40
488;DHT22;16586;48.976;9.584;2022-10-16T00:46:10;17.50;72.60
488;DHT22;16586;48.976;9.584;2022-10-16T00:48:38;17.50;72.50
488;DHT22;16586;48.976;9.584;2022-10-16T00:51:06;17.50;72.40
488;DHT22;16586;48.976;9.584;2022-10-16T00:53:34;17.50;72.40
488;DHT22;16586;48.976;9.584;2022-10-16T00:56:02;17.60;71.90
488;DHT22;16586;48.976;9.584;2022-10-16T00:58:29;17.50;71.90
488;DHT22;16586;48.976;9.584;2022-10-16T01:00:56;17.50;71.90
488;DHT22;16586;48.976;9.584;2022-10-16T01:03:27;17.50;72.20
488;DHT22;16586;48.976;9.584;2022-10-16T01:06:21;17.50;72.30
488;DHT22;16586;48.976;9.584;2022-10-16T01:09:09;17.50;72.30
488;DHT22;16586;48.976;9.584;2022-10-16T01:11:44;17.50;72.40
488;DHT22;16586;48.976;9.584;2022-10-16T01:14:15;17.60;72.30
488;DHT22;16586;48.976;9.584;2022-10-16T01:16:50;17.50;72.10
488;DHT22;16586;48.976;9.584;2022-10-16T01:19:31;17.50;72.00
488;DHT22;16586;48.976;9.584;2022-10-16T01:22:02;17.50;71.70
488;DHT22;16586;48.976;9.584;2022-10-16T01:24:34;17.40;71.50
488;DHT22;16586;48.976;9.584;2022-10-16T01:27:11;17.40;71.60
488;DHT22;16586;48.976;9.584;2022-10-16T01:29:42;17.30;71.60
488;DHT22;16586;48.976;9.584;2022-10-16T01:32:15;17.40;71.70
488;DHT22;16586;48.976;9.584;2022-10-16T01:34:48;17.40;72.00
488;DHT22;16586;48.976;9.584;2022-10-16T01:37:25;17.30;72.00
488;DHT22;16586;48.976;9.584;2022-10-16T01:39:55;17.40;71.90
488;DHT22;16586;48.976;9.584;2022-10-16T01:42:30;17.40;71.90
488;DHT22;16586;48.976;9.584;2022-10-16T01:44:59;17.40;71.90
488;DHT22;16586;48.976;9.584;2022-10-16T01:47:27;17.30;71.90
488;DHT22;16586;48.976;9.584;2022-10-16T01:49:58;17.40;71.90
488;DHT22;16586;48.976;9.584;2022-10-16T01:52:26;17.30;71.80
488;DHT22;16586;48.976;9.584;2022-10-16T01:54:55;17.40;71.60
488;DHT22;16586;48.976;9.584;2022-10-16T01:57:26;17.40;71.40
488;DHT22;16586;48.976;9.584;2022-10-16T01:59:57;17.30;71.50
488;DHT22;16586;48.976;9.584;2022-10-16T02:02:27;17.30;71.70
488;DHT22;16586;48.976;9.584;2022-10-16T02:04:58;17.30;71.60
488;DHT22;16586;48.976;9.584;2022-10-16T02:07:28;17.30;71.70
488;DHT22;16586;48.976;9.584;2022-10-16T02:09:55;17.30;72.00
488;DHT22;16586;48.976;9.584;2022-10-16T02:12:28;17.30;71.90
488;DHT22;16586;48.976;9.584;2022-10-16T02:14:55;17.30;71.80
488;DHT22;16586;48.976;9.584;2022-10-16T02:17:23;17.30;71.70
488;DHT22;16586;48.976;9.584;2022-10-16T02:19:53;17.30;71.60
488;DHT22;16586;48.976;9.584;2022-10-16T02:22:24;17.30;71.60
488;DHT22;16586;48.976;9.584;2022-10-16T02:24:54;17.20;71.60
488;DHT22;16586;48.976;9.584;2022-10-16T02:27:27;17.30;71.90
488;DHT22;16586;48.976;9.584;2022-10-16T02:30:03;17.20;72.00
488;DHT22;16586;48.976;9.584;2022-10-16T02:32:34;17.30;72.10
488;DHT22;16586;48.976;9.584;2022-10-16T02:35:02;17.30;72.00
488;DHT22;16586;48.976;9.584;2022-10-16T02:37:31;17.30;72.90
488;DHT22;16586;48.976;9.584;2022-10-16T02:39:58;17.30;72.00
488;DHT22;16586;48.976;9.584;2022-10-16T02:42:33;17.30;72.00
488;DHT22;16586;48.976;9.584;2022-10-16T02:45:00;17.30;72.10
488;DHT22;16586;48.976;9.584;2022-10-16T02:47:27;17.30;72.10
488;DHT22;16586;48.976;9.584;2022-10-16T02:49:53;17.30;72.10
488;DHT22;16586;48.976;9.584;2022-10-16T02:52:20;17.30;72.20
488;DHT22;16586;48.976;9.584;2022-10-16T02:54:48;17.30;72.10
488;DHT22;16586;48.976;9.584;2022-10-16T02:57:15;17.30;72.00
488;DHT22;16586;48.976;9.584;2022-10-16T02:59:43;17.30;72.20
488;DHT22;16586;48.976;9.584;2022-10-16T03:02:10;17.30;72.20
488;DHT22;16586;48.976;9.584;2022-10-16T03:04:37;17.30;72.10
488;DHT22;16586;48.976;9.584;2022-10-16T03:07:04;17.30;71.90
488;DHT22;16586;48.976;9.584;2022-10-16T03:09:31;17.40;71.90
488;DHT22;16586;48.976;9.584;2022-10-16T03:11:58;17.30;71.70
488;DHT22;16586;48.976;9.584;2022-10-16T03:14:25;17.40;71.60
488;DHT22;16586;48.976;9.584;2022-10-16T03:16:53;17.40;71.70
488;DHT22;16586;48.976;9.584;2022-10-16T03:19:20;17.30;71.60
488;DHT22;16586;48.976;9.584;2022-10-16T03:21:47;17.30;71.90
488;DHT22;16586;48.976;9.584;2022-10-16T03:24:14;17.40;72.00
488;DHT22;16586;48.976;9.584;2022-10-16T03:26:41;17.40;71.60
488;DHT22;16586;48.976;9.584;2022-10-16T03:29:07;17.30;71.20
488;DHT22;16586;48.976;9.584;2022-10-16T03:31:34;17.30;71.10
488;DHT22;16586;48.976;9.584;2022-10-16T03:34:02;17.30;71.20
488;DHT22;16586;48.976;9.584;2022-10-16T03:36:29;17.20;71.40
488;DHT22;16586;48.976;9.584;2022-10-16T03:38:56;17.20;71.30
488;DHT22;16586;48.976;9.584;2022-10-16T03:41:23;17.10;71.50
488;DHT22;16586;48.976;9.584;2022-10-16T03:43:49;17.20;71.60
488;DHT22;16586;48.976;9.584;2022-10-16T03:46:16;17.20;71.50
488;DHT22;16586;48.976;9.584;2022-10-16T03:48:43;17.20;71.40
488;DHT22;16586;48.976;9.584;2022-10-16T03:51:11;17.10;71.30
488;DHT22;16586;48.976;9.584;2022-10-16T03:53:38;17.10;71.40
488;DHT22;16586;48.976;9.584;2022-10-16T03:56:05;17.10;71.40
488;DHT22;16586;48.976;9.584;2022-10-16T03:58:32;17.10;71.20
488;DHT22;16586;48.976;9.584;2022-10-16T04:00:59;17.10;71.20
488;DHT22;16586;48.976;9.584;2022-10-16T04:03:26;17.10;71.10
488;DHT22;16586;48.976;9.584;2022-10-16T04:05:52;17.00;71.10
488;DHT22;16586;48.976;9.584;2022-10-16T04:08:21;17.10;71.40
488;DHT22;16586;48.976;9.584;2022-10-16T04:10:47;17.00;71.40
488;DHT22;16586;48.976;9.584;2022-10-16T04:13:14;17.00;71.30
488;DHT22;16586;48.976;9.584;2022-10-16T04:15:41;17.00;71.40
488;DHT22;16586;48.976;9.584;2022-10-16T04:18:08;17.00;71.60
488;DHT22;16586;48.976;9.584;2022-10-16T04:20:35;17.00;71.30
488;DHT22;16586;48.976;9.584;2022-10-16T04:23:02;17.00;71.00
488;DHT22;16586;48.976;9.584;2022-10-16T04:25:30;17.00;71.70
488;DHT22;16586;48.976;9.584;2022-10-16T04:27:57;17.00;70.90
488;DHT22;16586;48.976;9.584;2022-10-16T04:30:25;17.00;71.20
488;DHT22;16586;48.976;9.584;2022-10-16T04:32:52;16.90;71.20
488;DHT22;16586;48.976;9.584;2022-10-16T04:35:20;17.00;71.30
488;DHT22;16586;48.976;9.584;2022-10-16T04:37:47;16.90;71.20
488;DHT22;16586;48.976;9.584;2022-10-16T04:40:14;16.90;71.10
488;DHT22;16586;48.976;9.584;2022-10-16T04:42:42;16.90;71.10
488;DHT22;16586;48.976;9.584;2022-10-16T04:45:09;16.90;71.00
488;DHT22;16586;48.976;9.584;2022-10-16T04:47:36;16.90;71.00
488;DHT22;16586;48.976;9.584;2022-10-16T04:50:04;16.90;70.90
488;DHT22;16586;48.976;9.584;2022-10-16T04:52:31;16.80;70.80
488;DHT22;16586;48.976;9.584;2022-10-16T04:54:58;16.90;71.10
488;DHT22;16586;48.976;9.584;2022-10-16T04:57:27;16.80;71.10
488;DHT22;16586;48.976;9.584;2022-10-16T04:59:55;16.80;71.30
488;DHT22;16586;48.976;9.584;2022-10-16T05:02:22;16.90;71.30
488;DHT22;16586;48.976;9.584;2022-10-16T05:04:49;16.90;71.00
488;DHT22;16586;48.976;9.584;2022-10-16T05:07:16;16.90;71.10
488;DHT22;16586;48.976;9.584;2022-10-16T05:09:43;16.80;71.10
488;DHT22;16586;48.976;9.584;2022-10-16T05:12:09;16.90;71.30
488;DHT22;16586;48.976;9.584;2022-10-16T05:14:36;16.90;71.30
488;DHT22;16586;48.976;9.584;2022-10-16T05:17:04;16.90;71.40
488;DHT22;16586;48.976;9.584;2022-10-16T05:19:31;16.90;71.40
488;DHT22;16586;48.976;9.584;2022-10-16T05:21:58;16.90;71.20
488;DHT22;16586;48.976;9.584;2022-10-16T05:24:25;17.00;71.20
488;DHT22;16586;48.976;9.584;2022-10-16T05:26:52;16.90;71.00
488;DHT22;16586;48.976;9.584;2022-10-16T05:29:19;16.90;71.20
488;DHT22;16586;48.976;9.584;2022-10-16T05:31:46;16.90;71.40
488;DHT22;16586;48.976;9.584;2022-10-16T05:34:14;16.90;71.40
488;DHT22;16586;48.976;9.584;2022-10-16T05:36:41;16.90;71.50
488;DHT22;16586;48.976;9.584;2022-10-16T05:39:08;16.90;71.40
488;DHT22;16586;48.976;9.584;2022-10-16T05:41:34;16.90;71.30
488;DHT22;16586;48.976;9.584;2022-10-16T05:44:04;16.90;71.30
488;DHT22;16586;48.976;9.584;2022-10-16T05:46:32;16.90;71.30
488;DHT22;16586;48.976;9.584;2022-10-16T05:48:59;16.90;71.30
488;DHT22;16586;48.976;9.584;2022-10-16T05:51:27;16.90;71.10
488;DHT22;16586;48.976;9.584;2022-10-16T05:53:54;17.00;70.80
488;DHT22;16586;48.976;9.584;2022-10-16T05:56:21;16.90;70.80
488;DHT22;16586;48.976;9.584;2022-10-16T05:58:48;16.90;70.90
488;DHT22;16586;48.976;9.584;2022-10-16T06:01:16;16.90;70.90
488;DHT22;16586;48.976;9.584;2022-10-16T06:03:43;16.90;71.10
488;DHT22;16586;48.976;9.584;2022-10-16T06:06:10;16.90;71.20
488;DHT22;16586;48.976;9.584;2022-10-16T06:08:40;16.90;71.30
488;DHT22;16586;48.976;9.584;2022-10-16T06:11:08;16.90;71.30
488;DHT22;16586;48.976;9.584;2022-10-16T06:13:35;16.90;71.20
488;DHT22;16586;48.976;9.584;2022-10-16T06:16:03;16.90;71.90
488;DHT22;16586;48.976;9.584;2022-10-16T06:18:30;16.90;71.10
488;DHT22;16586;48.976;9.584;2022-10-16T06:20:57;16.90;71.10
488;DHT22;16586;48.976;9.584;2022-10-16T06:23:25;17.00;71.30
488;DHT22;16586;48.976;9.584;2022-10-16T06:25:53;16.90;71.00
488;DHT22;16586;48.976;9.584;2022-10-16T06:28:20;16.90;71.10
488;DHT22;16586;48.976;9.584;2022-10-16T06:30:47;16.90;71.70
488;DHT22;16586;48.976;9.584;2022-10-16T06:33:13;16.90;71.30
488;DHT22;16586;48.976;9.584;2022-10-16T06:35:40;16.90;71.10
488;DHT22;16586;48.976;9.584;2022-10-16T06:38:07;17.00;71.30
488;DHT22;16586;48.976;9.584;2022-10-16T06:40:34;17.00;71.50
488;DHT22;16586;48.976;9.584;2022-10-16T06:43:02;17.00;71.80
488;DHT22;16586;48.976;9.584;2022-10-16T06:45:29;17.00;71.90
488;DHT22;16586;48.976;9.584;2022-10-16T06:47:55;17.00;72.00
488;DHT22;16586;48.976;9.584;2022-10-16T06:50:22;17.00;71.90
488;DHT22;16586;48.976;9.584;2022-10-16T06:52:49;17.10;71.90
488;DHT22;16586;48.976;9.584;2022-10-16T06:55:16;17.20;72.00
488;DHT22;16586;48.976;9.584;2022-10-16T06:57:43;17.20;72.20
488;DHT22;16586;48.976;9.584;2022-10-16T07:00:12;17.20;72.20
488;DHT22;16586;48.976;9.584;2022-10-16T07:02:39;17.20;72.20
488;DHT22;16586;48.976;9.584;2022-10-16T07:05:06;17.30;72.10
488;DHT22;16586;48.976;9.584;2022-10-16T07:07:33;17.20;72.40
488;DHT22;16586;48.976;9.584;2022-10-16T07:10:00;17.30;72.50
488;DHT22;16586;48.976;9.584;2022-10-16T07:12:26;17.40;72.40
488;DHT22;16586;48.976;9.584;2022-10-16T07:14:53;17.40;72.30
488;DHT22;16586;48.976;9.584;2022-10-16T07:17:22;17.40;71.90
488;DHT22;16586;48.976;9.584;2022-10-16T07:19:49;17.50;71.60
488;DHT22;16586;48.976;9.584;2022-10-16T07:22:18;17.50;71.40
488;DHT22;16586;48.976;9.584;2022-10-16T07:24:45;17.50;71.80
488;DHT22;16586;48.976;9.584;2022-10-16T07:27:12;17.60;72.40
488;DHT22;16586;48.976;9.584;2022-10-16T07:29:38;17.60;72.70
488;DHT22;16586;48.976;9.584;2022-10-16T07:32:05;17.70;73.00
488;DHT22;16586;48.976;9.584;2022-10-16T07:34:33;17.70;73.00
488;DHT22;16586;48.976;9.584;2022-10-16T07:37:00;17.80;72.70
488;DHT22;16586;48.976;9.584;2022-10-16T07:39:27;17.80;73.00
488;DHT22;16586;48.976;9.584;2022-10-16T07:41:54;17.90;73.00
488;DHT22;16586;48.976;9.584;2022-10-16T07:44:20;18.00;72.80
488;DHT22;16586;48.976;9.584;2022-10-16T07:46:47;17.90;72.00
488;DHT22;16586;48.976;9.584;2022-10-16T07:49:14;18.00;72.20
488;DHT22;16586;48.976;9.584;2022-10-16T07:51:42;18.00;72.00
488;DHT22;16586;48.976;9.584;2022-10-16T07:54:09;17.90;71.70
488;DHT22;16586;48.976;9.584;2022-10-16T07:56:36;18.00;71.60
488;DHT22;16586;48.976;9.584;2022-10-16T07:59:03;18.00;71.20
488;DHT22;16586;48.976;9.584;2022-10-16T08:01:29;18.00;71.00
488;DHT22;16586;48.976;9.584;2022-10-16T08:03:56;18.00;70.80
488;DHT22;16586;48.976;9.584;2022-10-16T08:06:23;17.90;70.80
488;DHT22;16586;48.976;9.584;2022-10-16T08:08:51;17.90;70.90
488;DHT22;16586;48.976;9.584;2022-10-16T08:11:18;17.90;70.90
488;DHT22;16586;48.976;9.584;2022-10-16T08:13:45;17.90;70.90
488;DHT22;16586;48.976;9.584;2022-10-16T08:16:12;17.90;71.10
488;DHT22;16586;48.976;9.584;2022-10-16T08:18:40;17.90;71.30
488;DHT22;16586;48.976;9.584;2022-10-16T08:21:12;17.90;71.40
488;DHT22;16586;48.976;9.584;2022-10-16T08:23:39;17.80;71.90
488;DHT22;16586;48.976;9.584;2022-10-16T08:26:08;17.90;72.40
488;DHT22;16586;48.976;9.584;2022-10-16T08:28:35;18.00;72.90
488;DHT22;16586;48.976;9.584;2022-10-16T08:31:07;18.10;73.50
488;DHT22;16586;48.976;9.584;2022-10-16T08:33:34;18.30;73.70
488;DHT22;16586;48.976;9.584;2022-10-16T08:36:01;18.40;73.80
488;DHT22;16586;48.976;9.584;2022-10-16T08:38:28;18.50;73.70
488;DHT22;16586;48.976;9.584;2022-10-16T08:41:08;18.60;73.10
488;DHT22;16586;48.976;9.584;2022-10-16T08:47:08;18.70;72.20
488;DHT22;16586;48.976;9.584;2022-10-16T08:49:42;18.80;71.90
488;DHT22;16586;48.976;9.584;2022-10-16T08:52:11;18.80;71.50
488;DHT22;16586;48.976;9.584;2022-10-16T08:54:42;18.80;71.20
488;DHT22;16586;48.976;9.584;2022-10-16T08:57:12;18.80;70.80
488;DHT22;16586;48.976;9.584;2022-10-16T08:59:41;18.80;71.10
488;DHT22;16586;48.976;9.584;2022-10-16T09:02:24;18.80;71.40
488;DHT22;16586;48.976;9.584;2022-10-16T09:05:10;18.90;71.80
488;DHT22;16586;48.976;9.584;2022-10-16T09:07:50;19.00;72.10
488;DHT22;16586;48.976;9.584;2022-10-16T09:10:31;19.20;72.10
488;DHT22;16586;48.976;9.584;2022-10-16T09:13:07;19.40;72.10
488;DHT22;16586;48.976;9.584;2022-10-16T09:15:45;19.50;72.00
488;DHT22;16586;48.976;9.584;2022-10-16T09:18:20;19.60;71.60
488;DHT22;16586;48.976;9.584;2022-10-16T09:20:56;19.70;72.00
488;DHT22;16586;48.976;9.584;2022-10-16T09:23:26;19.80;70.90
488;DHT22;16586;48.976;9.584;2022-10-16T09:25:55;19.90;70.50
488;DHT22;16586;48.976;9.584;2022-10-16T09:28:22;20.00;69.50
488;DHT22;16586;48.976;9.584;2022-10-16T09:30:50;20.10;69.00
488;DHT22;16586;48.976;9.584;2022-10-16T09:33:20;20.10;69.00
488;DHT22;16586;48.976;9.584;2022-10-16T09:35:49;20.10;68.30
488;DHT22;16586;48.976;9.584;2022-10-16T09:38:26;20.10;67.80
488;DHT22;16586;48.976;9.584;2022-10-16T09:40:54;20.10;68.20
488;DHT22;16586;48.976;9.584;2022-10-16T09:43:23;20.10;68.80
488;DHT22;16586;48.976;9.584;2022-10-16T09:45:55;20.20;69.10
488;DHT22;16586;48.976;9.584;2022-10-16T09:48:23;20.30;69.20
488;DHT22;16586;48.976;9.584;2022-10-16T09:50:59;20.40;69.30
488;DHT22;16586;48.976;9.584;2022-10-16T09:53:37;20.60;69.50
488;DHT22;16586;48.976;9.584;2022-10-16T09:56:09;20.80;69.70
488;DHT22;16586;48.976;9.584;2022-10-16T09:58:42;20.90;69.60
488;DHT22;16586;48.976;9.584;2022-10-16T10:01:13;21.20;69.00
488;DHT22;16586;48.976;9.584;2022-10-16T10:03:42;21.40;68.50
488;DHT22;16586;48.976;9.584;2022-10-16T10:06:18;21.60;67.70
488;DHT22;16586;48.976;9.584;2022-10-16T10:08:58;21.90;67.70
488;DHT22;16586;48.976;9.584;2022-10-16T10:11:40;22.20;67.10
488;DHT22;16586;48.976;9.584;2022-10-16T10:14:18;22.40;65.70
488;DHT22;16586;48.976;9.584;2022-10-16T10:16:50;22.60;65.30
488;DHT22;16586;48.976;9.584;2022-10-16T10:19:20;22.90;62.80
488;DHT22;16586;48.976;9.584;2022-10-16T10:21:48;23.10;63.10
488;DHT22;16586;48.976;9.584;2022-10-16T10:24:17;23.40;61.70
488;DHT22;16586;48.976;9.584;2022-10-16T10:26:49;23.60;62.10
488;DHT22;16586;48.976;9.584;2022-10-16T10:29:27;23.90;60.90
488;DHT22;16586;48.976;9.584;2022-10-16T10:32:05;24.20;59.90
488;DHT22;16586;48.976;9.584;2022-10-16T10:34:47;24.50;58.90
488;DHT22;16586;48.976;9.584;2022-10-16T10:37:28;24.70;57.90
488;DHT22;16586;48.976;9.584;2022-10-16T10:40:03;24.80;56.70
488;DHT22;16586;48.976;9.584;2022-10-16T10:42:37;24.90;52.20
488;DHT22;16586;48.976;9.584;2022-10-16T10:45:18;24.90;52.20
488;DHT22;16586;48.976;9.584;2022-10-16T10:48:04;24.90;53.30
488;DHT22;16586;48.976;9.584;2022-10-16T10:50:39;24.70;53.40
488;DHT22;16586;48.976;9.584;2022-10-16T10:53:18;24.40;52.70
488;DHT22;16586;48.976;9.584;2022-10-16T10:55:50;24.30;53.80
488;DHT22;16586;48.976;9.584;2022-10-16T10:58:43;24.10;54.30
488;DHT22;16586;48.976;9.584;2022-10-16T11:01:16;24.00;55.20
488;DHT22;16586;48.976;9.584;2022-10-16T11:04:03;23.90;55.70
488;DHT22;16586;48.976;9.584;2022-10-16T11:06:34;23.90;55.80
488;DHT22;16586;48.976;9.584;2022-10-16T11:09:11;23.80;54.90
488;DHT22;16586;48.976;9.584;2022-10-16T11:11:43;23.70;56.00
488;DHT22;16586;48.976;9.584;2022-10-16T11:14:14;23.70;52.00
488;DHT22;16586;48.976;9.584;2022-10-16T11:16:47;23.70;54.00
488;DHT22;16586;48.976;9.584;2022-10-16T11:19:26;23.80;55.40
488;DHT22;16586;48.976;9.584;2022-10-16T11:22:01;24.00;56.20
488;DHT22;16586;48.976;9.584;2022-10-16T11:24:36;24.10;57.20
488;DHT22;16586;48.976;9.584;2022-10-16T11:27:09;24.30;57.60
488;DHT22;16586;48.976;9.584;2022-10-16T11:29:45;24.50;50.10
488;DHT22;16586;48.976;9.584;2022-10-16T11:32:21;24.70;51.60
488;DHT22;16586;48.976;9.584;2022-10-16T11:34:53;25.10;52.30
488;DHT22;16586;48.976;9.584;2022-10-16T11:37:24;25.60;52.10
488;DHT22;16586;48.976;9.584;2022-10-16T11:39:54;25.90;51.80
488;DHT22;16586;48.976;9.584;2022-10-16T11:42:32;26.10;51.50
488;DHT22;16586;48.976;9.584;2022-10-16T11:45:03;26.30;50.50
488;DHT22;16586;48.976;9.584;2022-10-16T11:47:36;26.30;48.90
488;DHT22;16586;48.976;9.584;2022-10-16T11:50:25;26.20;47.80
488;DHT22;16586;48.976;9.584;2022-10-16T11:52:57;26.10;47.80
488;DHT22;16586;48.976;9.584;2022-10-16T11:55:30;25.80;48.50
488;DHT22;16586;48.976;9.584;2022-10-16T11:58:00;25.60;49.50
488;DHT22;16586;48.976;9.584;2022-10-16T12:00:30;25.30;50.00
488;DHT22;16586;48.976;9.584;2022-10-16T12:03:05;25.00;50.60
488;DHT22;16586;48.976;9.584;2022-10-16T12:05:51;24.80;51.60
488;DHT22;16586;48.976;9.584;2022-10-16T12:08:19;24.60;52.30
488;DHT22;16586;48.976;9.584;2022-10-16T12:10:47;24.30;51.10
488;DHT22;16586;48.976;9.584;2022-10-16T12:13:31;24.20;51.50
488;DHT22;16586;48.976;9.584;2022-10-16T12:16:07;24.00;52.40
488;DHT22;16586;48.976;9.584;2022-10-16T12:18:46;23.80;53.20
488;DHT22;16586;48.976;9.584;2022-10-16T12:21:16;23.80;54.00
488;DHT22;16586;48.976;9.584;2022-10-16T12:23:48;23.70;53.90
488;DHT22;16586;48.976;9.584;2022-10-16T12:26:24;23.70;54.30
488;DHT22;16586;48.976;9.584;2022-10-16T12:28:51;23.70;55.00
488;DHT22;16586;48.976;9.584;2022-10-16T12:31:18;23.80;55.10
488;DHT22;16586;48.976;9.584;2022-10-16T12:33:56;23.80;53.50
488;DHT22;16586;48.976;9.584;2022-10-16T12:36:30;23.90;54.10
488;DHT22;16586;48.976;9.584;2022-10-16T12:38:57;24.00;54.20
488;DHT22;16586;48.976;9.584;2022-10-16T12:41:26;24.10;52.30
488;DHT22;16586;48.976;9.584;2022-10-16T12:43:54;23.80;50.90
488;DHT22;16586;48.976;9.584;2022-10-16T12:46:24;23.80;51.70
488;DHT22;16586;48.976;9.584;2022-10-16T12:49:06;23.90;52.30
488;DHT22;16586;48.976;9.584;2022-10-16T12:51:36;23.90;52.30
488;DHT22;16586;48.976;9.584;2022-10-16T12:54:04;23.90;52.50
488;DHT22;16586;48.976;9.584;2022-10-16T12:56:43;23.90;52.10
488;DHT22;16586;48.976;9.584;2022-10-16T12:59:21;23.80;53.00
488;DHT22;16586;48.976;9.584;2022-10-16T13:02:04;23.90;53.70
488;DHT22;16586;48.976;9.584;2022-10-16T13:04:58;23.90;53.60
488;DHT22;16586;48.976;9.584;2022-10-16T13:07:47;23.90;53.60
488;DHT22;16586;48.976;9.584;2022-10-16T13:10:23;23.80;54.00
488;DHT22;16586;48.976;9.584;2022-10-16T13:13:29;23.90;54.50
488;DHT22;16586;48.976;9.584;2022-10-16T13:16:12;24.00;54.80
488;DHT22;16586;48.976;9.584;2022-10-16T13:18:54;24.10;55.00
488;DHT22;16586;48.976;9.584;2022-10-16T13:21:37;24.20;55.20
488;DHT22;16586;48.976;9.584;2022-10-16T13:24:15;24.40;55.10
488;DHT22;16586;48.976;9.584;2022-10-16T13:26:49;24.50;54.60
488;DHT22;16586;48.976;9.584;2022-10-16T13:29:22;24.50;53.70
488;DHT22;16586;48.976;9.584;2022-10-16T13:31:49;24.50;53.40
488;DHT22;16586;48.976;9.584;2022-10-16T13:34:19;24.50;53.00
488;DHT22;16586;48.976;9.584;2022-10-16T13:36:48;24.40;52.70
488;DHT22;16586;48.976;9.584;2022-10-16T13:39:21;24.30;52.80
488;DHT22;16586;48.976;9.584;2022-10-16T13:42:00;24.30;52.80
488;DHT22;16586;48.976;9.584;2022-10-16T13:44:28;24.20;52.80
488;DHT22;16586;48.976;9.584;2022-10-16T13:47:00;24.20;52.90
488;DHT22;16586;48.976;9.584;2022-10-16T13:49:30;24.00;52.40
488;DHT22;16586;48.976;9.584;2022-10-16T13:51:58;24.00;53.20
488;DHT22;16586;48.976;9.584;2022-10-16T13:54:27;24.00;53.20
488;DHT22;16586;48.976;9.584;2022-10-16T13:56:55;23.70;52.80
488;DHT22;16586;48.976;9.584;2022-10-16T13:59:26;23.60;52.80
488;DHT22;16586;48.976;9.584;2022-10-16T14:01:55;23.50;53.20
488;DHT22;16586;48.976;9.584;2022-10-16T14:04:23;23.50;53.80
488;DHT22;16586;48.976;9.584;2022-10-16T14:06:51;23.30;53.60
488;DHT22;16586;48.976;9.584;2022-10-16T14:09:24;23.30;53.90
488;DHT22;16586;48.976;9.584;2022-10-16T14:11:55;23.30;54.80
488;DHT22;16586;48.976;9.584;2022-10-16T14:14:23;23.30;55.50
488;DHT22;16586;48.976;9.584;2022-10-16T14:16:50;23.40;56.00
488;DHT22;16586;48.976;9.584;2022-10-16T14:19:21;23.50;56.10
488;DHT22;16586;48.976;9.584;2022-10-16T14:21:49;23.60;55.80
488;DHT22;16586;48.976;9.584;2022-10-16T14:24:26;23.70;55.80
488;DHT22;16586;48.976;9.584;2022-10-16T14:26:54;23.70;55.70
488;DHT22;16586;48.976;9.584;2022-10-16T14:29:23;23.70;55.60
488;DHT22;16586;48.976;9.584;2022-10-16T14:31:57;23.80;55.80
488;DHT22;16586;48.976;9.584;2022-10-16T14:34:29;23.80;55.70
488;DHT22;16586;48.976;9.584;2022-10-16T14:37:00;23.70;55.70
488;DHT22;16586;48.976;9.584;2022-10-16T14:39:32;23.70;55.90
488;DHT22;16586;48.976;9.584;2022-10-16T14:42:01;23.60;55.50
488;DHT22;16586;48.976;9.584;2022-10-16T14:44:31;23.60;55.50
488;DHT22;16586;48.976;9.584;2022-10-16T14:47:05;23.50;55.30
488;DHT22;16586;48.976;9.584;2022-10-16T14:49:33;23.30;55.30
488;DHT22;16586;48.976;9.584;2022-10-16T14:52:00;23.20;55.40
488;DHT22;16586;48.976;9.584;2022-10-16T14:54:28;23.10;55.60
488;DHT22;16586;48.976;9.584;2022-10-16T14:56:56;23.00;55.90
488;DHT22;16586;48.976;9.584;2022-10-16T14:59:28;23.00;56.30
488;DHT22;16586;48.976;9.584;2022-10-16T15:01:56;22.90;56.40
488;DHT22;16586;48.976;9.584;2022-10-16T15:04:23;22.80;56.20
488;DHT22;16586;48.976;9.584;2022-10-16T15:06:50;22.70;56.40
488;DHT22;16586;48.976;9.584;2022-10-16T15:09:17;22.60;56.90
488;DHT22;16586;48.976;9.584;2022-10-16T15:11:43;22.50;57.00
488;DHT22;16586;48.976;9.584;2022-10-16T15:14:13;22.50;57.40
488;DHT22;16586;48.976;9.584;2022-10-16T15:16:41;22.40;57.80
488;DHT22;16586;48.976;9.584;2022-10-16T15:19:08;22.40;58.10
488;DHT22;16586;48.976;9.584;2022-10-16T15:21:35;22.30;58.10
488;DHT22;16586;48.976;9.584;2022-10-16T15:24:02;22.30;58.60
488;DHT22;16586;48.976;9.584;2022-10-16T15:26:29;22.20;58.70
488;DHT22;16586;48.976;9.584;2022-10-16T15:28:57;22.20;59.10
488;DHT22;16586;48.976;9.584;2022-10-16T15:31:26;22.20;59.10
488;DHT22;16586;48.976;9.584;2022-10-16T15:33:54;22.20;59.50
488;DHT22;16586;48.976;9.584;2022-10-16T15:36:28;22.10;59.40
488;DHT22;16586;48.976;9.584;2022-10-16T15:38:55;22.20;59.60
488;DHT22;16586;48.976;9.584;2022-10-16T15:41:22;22.20;59.40
488;DHT22;16586;48.976;9.584;2022-10-16T15:43:51;22.10;59.40
488;DHT22;16586;48.976;9.584;2022-10-16T15:46:19;22.20;59.30
488;DHT22;16586;48.976;9.584;2022-10-16T15:48:47;22.20;60.00
488;DHT22;16586;48.976;9.584;2022-10-16T15:51:16;22.10;59.20
488;DHT22;16586;48.976;9.584;2022-10-16T15:53:43;22.00;59.20
488;DHT22;16586;48.976;9.584;2022-10-16T15:56:12;21.90;59.10
488;DHT22;16586;48.976;9.584;2022-10-16T15:58:39;21.80;59.40
488;DHT22;16586;48.976;9.584;2022-10-16T16:01:06;21.80;60.00
488;DHT22;16586;48.976;9.584;2022-10-16T16:03:35;21.80;60.00
488;DHT22;16586;48.976;9.584;2022-10-16T16:06:06;21.70;59.60
488;DHT22;16586;48.976;9.584;2022-10-16T16:08:35;21.60;59.90
488;DHT22;16586;48.976;9.584;2022-10-16T16:11:04;21.50;60.10
488;DHT22;16586;48.976;9.584;2022-10-16T16:13:31;21.40;60.80
488;DHT22;16586;48.976;9.584;2022-10-16T16:15:58;21.30;60.70
488;DHT22;16586;48.976;9.584;2022-10-16T16:18:25;21.30;60.70
488;DHT22;16586;48.976;9.584;2022-10-16T16:20:52;21.10;60.50
488;DHT22;16586;48.976;9.584;2022-10-16T16:23:19;21.10;60.50
488;DHT22;16586;48.976;9.584;2022-10-16T16:28:43;20.90;60.30